createdAt,value
2023-02-25T00:04:16.042Z,21.15
2023-02-25T00:09:41.330Z,15.35
2023-02-25T00:15:11.691Z,19.35
2023-02-25T00:20:35.846Z,28.08
2023-02-25T00:26:01.981Z,27.13
2023-02-25T00:31:27.309Z,19.10
2023-02-25T00:36:51.765Z,22.52
2023-02-25T00:42:22.182Z,20.83
2023-02-25T00:47:51.490Z,17.63
2023-02-25T00:53:20.600Z,20.17
2023-02-25T00:58:52.666Z,19.70
2023-02-25T01:04:18.237Z,20.55
2023-02-25T01:09:47.418Z,18.90
2023-02-25T01:15:13.997Z,21.10
2023-02-25T01:20:42.449Z,23.50
2023-02-25T01:26:09.849Z,22.33
2023-02-25T01:31:38.272Z,16.85
2023-02-25T01:37:01.919Z,17.55
2023-02-25T01:42:30.603Z,20.15
2023-02-25T01:47:59.465Z,18.17
2023-02-25T01:53:29.016Z,15.15
2023-02-25T01:58:54.336Z,17.17
2023-02-25T02:04:27.473Z,16.95
2023-02-25T02:09:57.013Z,21.45
2023-02-25T02:15:21.252Z,15.18
2023-02-25T02:21:07.382Z,14.60
2023-02-25T02:26:50.233Z,12.80
2023-02-25T02:32:26.933Z,18.80
2023-02-25T02:38:04.810Z,14.75
2023-02-25T02:43:42.289Z,18.20
2023-02-25T02:49:13.553Z,13.48
2023-02-25T02:54:45.940Z,16.50
2023-02-25T03:00:18.362Z,15.68
2023-02-25T03:05:54.829Z,11.55
2023-02-25T03:11:18.422Z,11.93
2023-02-25T03:16:45.921Z,14.57
2023-02-25T03:22:14.168Z,21.92
2023-02-25T03:27:41.172Z,13.60
2023-02-25T03:33:12.563Z,23.60
2023-02-25T03:38:44.715Z,21.40
2023-02-25T03:44:13.934Z,18.48
2023-02-25T03:49:47.588Z,18.92
2023-02-25T03:55:13.033Z,17.67
2023-02-25T04:00:45.928Z,13.98
2023-02-25T04:06:15.021Z,22.35
2023-02-25T04:11:45.226Z,20.63
2023-02-25T04:17:14.753Z,32.55
2023-02-25T04:22:38.632Z,34.20
2023-02-25T04:28:03.926Z,33.33
2023-02-25T04:33:29.988Z,32.00
2023-02-25T04:38:59.690Z,28.67
2023-02-25T04:44:31.031Z,29.90
2023-02-25T04:49:59.843Z,35.92
2023-02-25T04:55:25.726Z,28.85
2023-02-25T05:00:50.480Z,41.58
2023-02-25T05:06:19.236Z,38.42
2023-02-25T05:11:43.432Z,31.05
2023-02-25T05:17:08.411Z,33.45
2023-02-25T05:22:31.709Z,32.70
2023-02-25T05:27:55.384Z,0.20
2023-02-25T05:33:20.410Z,1.85
2023-02-25T05:38:44.377Z,1.40
2023-02-25T05:44:08.883Z,3.83
2023-02-25T05:49:33.750Z,3.83
2023-02-25T05:54:57.755Z,6.32
2023-02-25T06:00:22.757Z,0.75
2023-02-25T06:05:48.134Z,0.50
2023-02-25T06:11:14.819Z,0.50
2023-02-25T06:16:40.177Z,0.70
2023-02-25T06:22:04.767Z,0.68
2023-02-25T06:27:28.087Z,0.30
2023-02-25T06:32:56.859Z,0.47
2023-02-25T06:38:27.510Z,0.40
2023-02-25T06:43:52.346Z,0.28
2023-02-25T06:49:15.708Z,0.25
2023-02-25T06:54:39.965Z,0.30
2023-02-25T07:00:05.446Z,1.80
2023-02-25T07:05:28.482Z,1.85
2023-02-25T07:10:53.618Z,0.70
2023-02-25T07:16:23.756Z,0.75
2023-02-25T07:21:48.256Z,0.20
2023-02-25T07:27:14.456Z,0.80
2023-02-25T07:32:37.658Z,1.63
2023-02-25T07:38:01.781Z,0.75
2023-02-25T07:43:27.023Z,0.22
2023-02-25T07:48:53.563Z,0.52
2023-02-25T07:54:22.972Z,0.60
2023-02-25T07:59:53.006Z,2.92
2023-02-25T08:05:21.896Z,1.48
2023-02-25T08:10:51.659Z,0.80
2023-02-25T08:16:23.441Z,0.20
2023-02-25T08:21:54.015Z,0.20
2023-02-25T08:27:22.250Z,0.43
2023-02-25T08:32:47.140Z,2.17
2023-02-25T08:43:42.165Z,0.30
2023-02-25T08:49:11.324Z,0.70
2023-02-25T08:54:41.379Z,2.60
2023-02-25T09:00:09.523Z,1.17
2023-02-25T09:11:06.511Z,43.90
2023-02-25T09:16:31.191Z,32.28
2023-02-25T09:21:56.145Z,25.85
2023-02-25T09:27:20.973Z,25.83
2023-02-25T09:32:49.884Z,26.05
2023-02-25T09:38:16.237Z,28.08
2023-02-25T09:43:46.708Z,28.98
2023-02-25T09:49:19.470Z,28.15
2023-02-25T09:54:55.992Z,30.63
2023-02-25T10:00:24.995Z,35.45
2023-02-25T10:05:55.694Z,34.17
2023-02-25T10:11:37.905Z,39.42
2023-02-25T10:17:13.752Z,25.45
2023-02-25T10:22:48.652Z,26.20
2023-02-25T10:28:18.502Z,22.75
2023-02-25T10:33:50.925Z,24.50
2023-02-25T10:39:14.585Z,20.90
2023-02-25T10:44:46.585Z,21.88
2023-02-25T10:50:19.473Z,25.52
2023-02-25T10:55:54.959Z,21.30
2023-02-25T11:01:25.608Z,22.90
2023-02-25T11:06:54.622Z,28.63
2023-02-25T11:12:24.797Z,30.77
2023-02-25T11:17:57.252Z,16.95
2023-02-25T11:23:33.442Z,20.95
2023-02-25T11:29:07.966Z,23.13
2023-02-25T11:34:50.228Z,18.65
2023-02-25T11:40:24.080Z,15.05
2023-02-25T11:45:57.069Z,20.33
2023-02-25T11:51:30.644Z,18.30
2023-02-25T11:57:06.663Z,15.98
2023-02-25T12:02:48.960Z,15.57
2023-02-25T12:08:34.465Z,15.32
2023-02-25T12:14:28.338Z,15.52
2023-02-25T12:20:31.209Z,21.48
2023-02-25T12:26:11.138Z,18.15
2023-02-25T12:32:13.340Z,17.75
2023-02-25T12:37:54.069Z,21.05
2023-02-25T12:43:33.138Z,14.43
2023-02-25T12:49:37.610Z,16.60
2023-02-25T12:55:24.899Z,16.20
2023-02-25T13:01:22.325Z,16.20
2023-02-25T13:07:03.215Z,14.20
2023-02-25T13:12:55.022Z,20.30
2023-02-25T13:18:33.192Z,11.38
2023-02-25T13:24:18.410Z,13.57
2023-02-25T13:30:05.105Z,12.05
2023-02-25T13:35:42.154Z,16.80
2023-02-25T13:41:35.807Z,11.15
2023-02-25T13:47:31.064Z,13.18
2023-02-25T13:53:22.677Z,15.67
2023-02-25T13:59:03.309Z,15.73
2023-02-25T14:04:51.460Z,15.18
2023-02-25T14:10:33.057Z,13.88
2023-02-25T14:16:08.554Z,15.85
2023-02-25T14:21:49.512Z,16.90
2023-02-25T14:27:25.718Z,18.15
2023-02-25T14:33:28.701Z,14.50
2023-02-25T14:39:24.066Z,14.30
2023-02-25T14:45:00.230Z,16.45
2023-02-25T14:50:35.042Z,14.50
2023-02-25T14:56:17.264Z,12.23
2023-02-25T15:02:09.755Z,22.08
2023-02-25T15:08:02.824Z,19.85
2023-02-25T15:13:51.737Z,20.35
2023-02-25T15:19:59.397Z,17.85
2023-02-25T15:25:39.003Z,18.67
2023-02-25T15:31:12.344Z,23.33
2023-02-25T15:36:44.937Z,18.58
2023-02-25T15:42:12.016Z,20.40
2023-02-25T15:47:37.980Z,17.77
2023-02-25T15:53:09.972Z,18.38
2023-02-25T15:58:54.321Z,20.60
2023-02-25T16:04:54.314Z,22.65
2023-02-25T16:10:27.695Z,30.00
2023-02-25T16:15:58.947Z,20.83
2023-02-25T16:21:32.920Z,20.17
2023-02-25T16:27:02.667Z,27.98
2023-02-25T16:32:40.767Z,32.45
2023-02-25T16:38:15.565Z,35.08
2023-02-25T16:43:46.526Z,32.90
2023-02-25T16:49:24.069Z,27.40
2023-02-25T16:55:00.586Z,27.63
2023-02-25T17:00:26.985Z,32.05
2023-02-25T17:06:07.974Z,23.42
2023-02-25T17:11:37.159Z,21.85
2023-02-25T17:17:00.739Z,22.95
2023-02-25T17:22:27.331Z,20.13
2023-02-25T17:27:54.258Z,27.98
2023-02-25T17:33:25.785Z,27.42
2023-02-25T17:38:57.106Z,23.45
2023-02-25T17:44:47.495Z,32.20
2023-02-25T17:50:25.736Z,25.73
2023-02-25T17:55:51.337Z,29.65
2023-02-25T18:01:27.090Z,32.20
2023-02-25T18:06:50.700Z,31.35
2023-02-25T18:12:24.346Z,32.08
2023-02-25T18:17:51.057Z,34.30
2023-02-25T18:23:21.029Z,40.20
2023-02-25T18:28:51.405Z,39.70
2023-02-25T18:34:19.280Z,31.00
2023-02-25T18:39:42.329Z,33.13
2023-02-25T18:45:18.260Z,31.50
2023-02-25T18:50:44.498Z,38.17
2023-02-25T18:56:08.810Z,33.28
2023-02-25T19:01:35.848Z,30.08
2023-02-25T19:07:04.171Z,38.72
2023-02-25T19:12:30.284Z,37.90
2023-02-25T19:18:01.108Z,41.30
2023-02-25T19:23:26.164Z,46.75
2023-02-25T19:28:54.330Z,41.55
2023-02-25T19:34:24.918Z,44.70
2023-02-25T19:39:49.450Z,49.40
2023-02-25T19:50:50.379Z,50.03
2023-02-25T20:01:44.620Z,59.80
2023-02-25T20:07:15.945Z,49.20
2023-02-25T20:12:45.950Z,47.70
2023-02-25T20:18:14.685Z,53.50
2023-02-25T20:23:45.294Z,57.60
2023-02-25T20:29:09.557Z,51.42
2023-02-25T20:34:33.730Z,60.35
2023-02-25T20:40:08.093Z,63.53
2023-02-25T20:45:37.349Z,68.85
2023-02-25T20:51:01.047Z,65.47
2023-02-25T20:56:32.085Z,67.15
2023-02-25T21:02:01.775Z,71.82
2023-02-25T21:07:31.680Z,59.65
2023-02-25T21:13:02.993Z,70.55
2023-02-25T21:18:34.129Z,61.40
2023-02-25T21:24:02.595Z,60.58
2023-02-25T21:29:33.477Z,58.63
2023-02-25T21:34:57.240Z,56.45
2023-02-25T21:40:21.792Z,55.67
2023-02-25T21:45:56.018Z,57.15
2023-02-25T21:51:27.574Z,62.25
2023-02-25T21:56:56.919Z,59.22
2023-02-25T22:02:28.704Z,61.00
2023-02-25T22:07:57.946Z,57.95
2023-02-25T22:13:26.071Z,51.38
2023-02-25T22:18:56.655Z,53.72
2023-02-25T22:24:23.110Z,58.35
2023-02-25T22:29:52.254Z,52.33
2023-02-25T22:35:19.795Z,56.53
2023-02-25T22:40:49.491Z,52.03
2023-02-25T22:46:17.502Z,50.75
2023-02-25T22:51:43.740Z,60.25
2023-02-25T22:57:13.058Z,54.58
2023-02-25T23:02:42.107Z,45.00
2023-02-25T23:08:11.104Z,45.20
2023-02-25T23:13:34.277Z,45.38
2023-02-25T23:19:03.520Z,49.30
2023-02-25T23:24:34.349Z,47.35
2023-02-25T23:30:03.243Z,41.53
2023-02-25T23:35:26.788Z,47.42
2023-02-25T23:40:51.576Z,38.47
2023-02-25T23:46:15.044Z,39.78
2023-02-25T23:51:38.401Z,39.63
2023-02-25T23:57:02.814Z,39.28
